sensor_id;sensor_type;location;lat;lon;timestamp;P1;durP1;ratioP1;P2;durP2;ratioP2
20399;SDS011;10359;53.596;22.520;2023-07-13T00:00:25;29.90;;;21.53;;
20399;SDS011;10359;53.596;22.520;2023-07-13T00:10:27;24.93;;;17.93;;
20399;SDS011;10359;53.596;22.520;2023-07-13T00:20:35;27.87;;;21.37;;
20399;SDS011;10359;53.596;22.520;2023-07-13T00:27:27;29.10;;;21.10;;
20399;SDS011;10359;53.596;22.520;2023-07-13T00:34:20;26.90;;;19.60;;
20399;SDS011;10359;53.596;22.520;2023-07-13T00:41:17;24.90;;;19.53;;
20399;SDS011;10359;53.596;22.520;2023-07-13T00:47:52;28.53;;;20.80;;
20399;SDS011;10359;53.596;22.520;2023-07-13T00:54:28;22.77;;;17.63;;
20399;SDS011;10359;53.596;22.520;2023-07-13T01:00:59;24.90;;;18.93;;
20399;SDS011;10359;53.596;22.520;2023-07-13T01:17:59;23.57;;;19.23;;
20399;SDS011;10359;53.596;22.520;2023-07-13T01:20:52;23.50;;;18.73;;
20399;SDS011;10359;53.596;22.520;2023-07-13T01:27:13;23.60;;;18.33;;
20399;SDS011;10359;53.596;22.520;2023-07-13T01:30:07;20.93;;;16.80;;
20399;SDS011;10359;53.596;22.520;2023-07-13T01:37:16;40.10;;;23.57;;
20399;SDS011;10359;53.596;22.520;2023-07-13T01:43:50;26.63;;;19.63;;
20399;SDS011;10359;53.596;22.520;2023-07-13T02:00:51;21.13;;;16.87;;
20399;SDS011;10359;53.596;22.520;2023-07-13T02:15:04;20.37;;;16.33;;
20399;SDS011;10359;53.596;22.520;2023-07-13T02:21:51;24.23;;;19.07;;
20399;SDS011;10359;53.596;22.520;2023-07-13T02:28:40;22.93;;;18.30;;
20399;SDS011;10359;53.596;22.520;2023-07-13T02:35:42;19.77;;;16.80;;
20399;SDS011;10359;53.596;22.520;2023-07-13T02:42:28;25.23;;;18.70;;
20399;SDS011;10359;53.596;22.520;2023-07-13T02:49:08;29.87;;;21.27;;
20399;SDS011;10359;53.596;22.520;2023-07-13T02:56:07;26.67;;;20.07;;
20399;SDS011;10359;53.596;22.520;2023-07-13T03:02:54;26.37;;;20.30;;
20399;SDS011;10359;53.596;22.520;2023-07-13T03:13:25;28.67;;;22.17;;
20399;SDS011;10359;53.596;22.520;2023-07-13T03:20:12;27.80;;;18.80;;
20399;SDS011;10359;53.596;22.520;2023-07-13T03:26:58;24.77;;;18.03;;
20399;SDS011;10359;53.596;22.520;2023-07-13T03:33:41;27.70;;;19.90;;
20399;SDS011;10359;53.596;22.520;2023-07-13T03:40:28;22.27;;;18.23;;
20399;SDS011;10359;53.596;22.520;2023-07-13T03:47:15;22.43;;;17.80;;
20399;SDS011;10359;53.596;22.520;2023-07-13T03:54:14;21.47;;;16.20;;
20399;SDS011;10359;53.596;22.520;2023-07-13T04:01:12;20.53;;;17.90;;
20399;SDS011;10359;53.596;22.520;2023-07-13T04:08:00;16.73;;;14.93;;
20399;SDS011;10359;53.596;22.520;2023-07-13T04:18:27;22.27;;;19.67;;
20399;SDS011;10359;53.596;22.520;2023-07-13T04:25:12;23.00;;;19.77;;
20399;SDS011;10359;53.596;22.520;2023-07-13T04:32:09;22.43;;;19.30;;
20399;SDS011;10359;53.596;22.520;2023-07-13T04:39:03;17.60;;;15.87;;
20399;SDS011;10359;53.596;22.520;2023-07-13T04:45:43;19.83;;;17.83;;
20399;SDS011;10359;53.596;22.520;2023-07-13T04:52:42;19.20;;;17.20;;
20399;SDS011;10359;53.596;22.520;2023-07-13T04:59:40;22.33;;;19.43;;
20399;SDS011;10359;53.596;22.520;2023-07-13T05:13:39;21.37;;;17.60;;
20399;SDS011;10359;53.596;22.520;2023-07-13T05:20:27;20.00;;;18.00;;
20399;SDS011;10359;53.596;22.520;2023-07-13T05:31:01;14.63;;;13.07;;
20399;SDS011;10359;53.596;22.520;2023-07-13T05:53:04;12.83;;;11.53;;
20399;SDS011;10359;53.596;22.520;2023-07-13T05:59:44;14.67;;;12.97;;
20399;SDS011;10359;53.596;22.520;2023-07-13T06:06:31;12.73;;;10.90;;
20399;SDS011;10359;53.596;22.520;2023-07-13T06:09:35;12.60;;;11.30;;
20399;SDS011;10359;53.596;22.520;2023-07-13T06:16:39;10.20;;;9.17;;
20399;SDS011;10359;53.596;22.520;2023-07-13T06:23:26;11.10;;;7.67;;
20399;SDS011;10359;53.596;22.520;2023-07-13T06:30:24;9.33;;;6.83;;
20399;SDS011;10359;53.596;22.520;2023-07-13T06:37:22;7.50;;;6.80;;
20399;SDS011;10359;53.596;22.520;2023-07-13T06:44:19;7.53;;;6.73;;
20399;SDS011;10359;53.596;22.520;2023-07-13T06:51:12;9.37;;;8.47;;
20399;SDS011;10359;53.596;22.520;2023-07-13T06:58:03;8.50;;;7.03;;
20399;SDS011;10359;53.596;22.520;2023-07-13T07:04:54;7.40;;;4.90;;
20399;SDS011;10359;53.596;22.520;2023-07-13T07:11:46;6.10;;;5.30;;
20399;SDS011;10359;53.596;22.520;2023-07-13T07:18:51;7.50;;;5.90;;
20399;SDS011;10359;53.596;22.520;2023-07-13T07:25:24;6.37;;;5.10;;
20399;SDS011;10359;53.596;22.520;2023-07-13T07:32:17;6.97;;;5.80;;
20399;SDS011;10359;53.596;22.520;2023-07-13T07:39:11;8.57;;;6.77;;
20399;SDS011;10359;53.596;22.520;2023-07-13T07:46:02;9.17;;;5.70;;
20399;SDS011;10359;53.596;22.520;2023-07-13T07:52:55;7.83;;;4.63;;
20399;SDS011;10359;53.596;22.520;2023-07-13T07:59:46;5.80;;;4.33;;
20399;SDS011;10359;53.596;22.520;2023-07-13T08:06:24;5.63;;;4.37;;
20399;SDS011;10359;53.596;22.520;2023-07-13T08:13:34;5.33;;;4.43;;
20399;SDS011;10359;53.596;22.520;2023-07-13T08:20:25;6.50;;;5.87;;
20399;SDS011;10359;53.596;22.520;2023-07-13T08:26:58;6.67;;;4.90;;
20399;SDS011;10359;53.596;22.520;2023-07-13T08:33:50;4.70;;;3.87;;
20399;SDS011;10359;53.596;22.520;2023-07-13T08:40:41;5.37;;;2.73;;
20399;SDS011;10359;53.596;22.520;2023-07-13T08:47:33;4.23;;;2.90;;
20399;SDS011;10359;53.596;22.520;2023-07-13T08:54:30;6.70;;;2.75;;
20399;SDS011;10359;53.596;22.520;2023-07-13T09:01:28;4.13;;;2.80;;
20399;SDS011;10359;53.596;22.520;2023-07-13T09:08:10;4.53;;;2.20;;
20399;SDS011;10359;53.596;22.520;2023-07-13T09:15:21;2.25;;;1.92;;
20399;SDS011;10359;53.596;22.520;2023-07-13T09:22:16;2.70;;;1.98;;
20399;SDS011;10359;53.596;22.520;2023-07-13T09:29:11;5.05;;;2.30;;
20399;SDS011;10359;53.596;22.520;2023-07-13T09:36:18;2.85;;;1.83;;
20399;SDS011;10359;53.596;22.520;2023-07-13T09:42:54;4.10;;;2.03;;
20399;SDS011;10359;53.596;22.520;2023-07-13T10:04:45;3.70;;;1.95;;
20399;SDS011;10359;53.596;22.520;2023-07-13T10:07:42;2.55;;;1.95;;
20399;SDS011;10359;53.596;22.520;2023-07-13T10:22:39;3.45;;;1.90;;
20399;SDS011;10359;53.596;22.520;2023-07-13T10:29:37;4.28;;;2.10;;
20399;SDS011;10359;53.596;22.520;2023-07-13T10:44:20;2.70;;;1.88;;
20399;SDS011;10359;53.596;22.520;2023-07-13T10:51:16;2.97;;;1.83;;
20399;SDS011;10359;53.596;22.520;2023-07-13T10:54:14;3.13;;;1.90;;
20399;SDS011;10359;53.596;22.520;2023-07-13T11:01:12;2.03;;;1.83;;
20399;SDS011;10359;53.596;22.520;2023-07-13T11:23:54;5.00;;;2.50;;
20399;SDS011;10359;53.596;22.520;2023-07-13T11:31:01;3.65;;;1.92;;
20399;SDS011;10359;53.596;22.520;2023-07-13T11:41:37;2.08;;;1.77;;
20399;SDS011;10359;53.596;22.520;2023-07-13T11:56:37;3.30;;;2.15;;
20399;SDS011;10359;53.596;22.520;2023-07-13T12:13:47;2.47;;;2.08;;
20399;SDS011;10359;53.596;22.520;2023-07-13T12:20:38;2.47;;;1.65;;
20399;SDS011;10359;53.596;22.520;2023-07-13T12:31:25;2.53;;;2.33;;
20399;SDS011;10359;53.596;22.520;2023-07-13T12:38:20;1.88;;;1.40;;
20399;SDS011;10359;53.596;22.520;2023-07-13T12:44:54;2.75;;;2.50;;
20399;SDS011;10359;53.596;22.520;2023-07-13T12:51:55;1.98;;;1.70;;
20399;SDS011;10359;53.596;22.520;2023-07-13T12:58:47;2.67;;;1.88;;
20399;SDS011;10359;53.596;22.520;2023-07-13T13:05:26;4.32;;;2.03;;
20399;SDS011;10359;53.596;22.520;2023-07-13T13:12:01;2.50;;;1.73;;
20399;SDS011;10359;53.596;22.520;2023-07-13T13:18:54;3.47;;;1.80;;
20399;SDS011;10359;53.596;22.520;2023-07-13T13:25:29;3.55;;;2.60;;
20399;SDS011;10359;53.596;22.520;2023-07-13T13:32:05;2.75;;;2.17;;
20399;SDS011;10359;53.596;22.520;2023-07-13T13:39:00;3.50;;;1.83;;
20399;SDS011;10359;53.596;22.520;2023-07-13T13:45:54;2.17;;;1.70;;
20399;SDS011;10359;53.596;22.520;2023-07-13T13:52:48;1.83;;;1.60;;
20399;SDS011;10359;53.596;22.520;2023-07-13T13:59:40;2.60;;;1.83;;
20399;SDS011;10359;53.596;22.520;2023-07-13T14:06:14;3.85;;;1.77;;
20399;SDS011;10359;53.596;22.520;2023-07-13T14:13:08;3.00;;;1.75;;
20399;SDS011;10359;53.596;22.520;2023-07-13T14:20:09;3.03;;;1.80;;
20399;SDS011;10359;53.596;22.520;2023-07-13T14:27:02;3.55;;;1.70;;
20399;SDS011;10359;53.596;22.520;2023-07-13T14:33:56;2.78;;;1.90;;
20399;SDS011;10359;53.596;22.520;2023-07-13T14:40:47;3.55;;;1.50;;
20399;SDS011;10359;53.596;22.520;2023-07-13T14:47:21;3.67;;;1.73;;
20399;SDS011;10359;53.596;22.520;2023-07-13T14:53:56;3.05;;;1.67;;
20399;SDS011;10359;53.596;22.520;2023-07-13T15:00:47;3.08;;;1.73;;
20399;SDS011;10359;53.596;22.520;2023-07-13T15:07:39;3.00;;;1.48;;
20399;SDS011;10359;53.596;22.520;2023-07-13T15:14:14;5.30;;;1.95;;
20399;SDS011;10359;53.596;22.520;2023-07-13T15:21:07;3.58;;;1.92;;
20399;SDS011;10359;53.596;22.520;2023-07-13T15:28:02;2.55;;;1.88;;
20399;SDS011;10359;53.596;22.520;2023-07-13T15:34:54;2.90;;;1.90;;
20399;SDS011;10359;53.596;22.520;2023-07-13T15:41:28;2.97;;;2.10;;
20399;SDS011;10359;53.596;22.520;2023-07-13T15:48:02;4.57;;;1.83;;
20399;SDS011;10359;53.596;22.520;2023-07-13T15:54:54;3.25;;;1.77;;
20399;SDS011;10359;53.596;22.520;2023-07-13T16:01:30;3.55;;;2.08;;
20399;SDS011;10359;53.596;22.520;2023-07-13T16:08:04;2.38;;;1.42;;
20399;SDS011;10359;53.596;22.520;2023-07-13T16:19:03;2.28;;;1.70;;
20399;SDS011;10359;53.596;22.520;2023-07-13T16:25:37;3.42;;;1.85;;
20399;SDS011;10359;53.596;22.520;2023-07-13T16:32:13;5.00;;;1.77;;
20399;SDS011;10359;53.596;22.520;2023-07-13T16:39:11;3.78;;;2.03;;
20399;SDS011;10359;53.596;22.520;2023-07-13T16:46:04;4.00;;;2.00;;
20399;SDS011;10359;53.596;22.520;2023-07-13T16:53:00;3.35;;;1.98;;
20399;SDS011;10359;53.596;22.520;2023-07-13T16:59:38;2.90;;;1.85;;
20399;SDS011;10359;53.596;22.520;2023-07-13T17:06:22;3.90;;;2.10;;
20399;SDS011;10359;53.596;22.520;2023-07-13T17:24:10;3.73;;;2.20;;
20399;SDS011;10359;53.596;22.520;2023-07-13T17:31:08;4.17;;;2.20;;
20399;SDS011;10359;53.596;22.520;2023-07-13T17:38:09;3.90;;;2.00;;
20399;SDS011;10359;53.596;22.520;2023-07-13T17:44:42;3.87;;;2.10;;
20399;SDS011;10359;53.596;22.520;2023-07-13T17:54:33;5.67;;;2.50;;
20399;SDS011;10359;53.596;22.520;2023-07-13T18:01:09;6.20;;;2.40;;
20399;SDS011;10359;53.596;22.520;2023-07-13T18:07:44;4.40;;;2.07;;
20399;SDS011;10359;53.596;22.520;2023-07-13T18:14:38;3.33;;;2.60;;
20399;SDS011;10359;53.596;22.520;2023-07-13T18:21:30;6.63;;;2.47;;
20399;SDS011;10359;53.596;22.520;2023-07-13T18:28:22;7.63;;;2.30;;
20399;SDS011;10359;53.596;22.520;2023-07-13T18:35:17;15.70;;;2.60;;
20399;SDS011;10359;53.596;22.520;2023-07-13T18:38:16;3.63;;;2.20;;
20399;SDS011;10359;53.596;22.520;2023-07-13T18:45:09;9.23;;;2.93;;
20399;SDS011;10359;53.596;22.520;2023-07-13T18:52:07;5.23;;;2.37;;
20399;SDS011;10359;53.596;22.520;2023-07-13T18:58:46;2.90;;;2.10;;
20399;SDS011;10359;53.596;22.520;2023-07-13T19:05:40;5.23;;;2.23;;
20399;SDS011;10359;53.596;22.520;2023-07-13T19:12:50;2.97;;;2.10;;
20399;SDS011;10359;53.596;22.520;2023-07-13T19:22:45;3.13;;;2.23;;
20399;SDS011;10359;53.596;22.520;2023-07-13T19:29:25;3.73;;;2.10;;
20399;SDS011;10359;53.596;22.520;2023-07-13T19:36:01;4.77;;;2.40;;
20399;SDS011;10359;53.596;22.520;2023-07-13T19:42:54;4.27;;;2.13;;
20399;SDS011;10359;53.596;22.520;2023-07-13T19:49:47;3.70;;;2.57;;
20399;SDS011;10359;53.596;22.520;2023-07-13T19:56:24;4.60;;;2.23;;
20399;SDS011;10359;53.596;22.520;2023-07-13T20:03:16;3.23;;;1.87;;
20399;SDS011;10359;53.596;22.520;2023-07-13T20:10:22;3.37;;;1.90;;
20399;SDS011;10359;53.596;22.520;2023-07-13T20:17:20;2.57;;;1.70;;
20399;SDS011;10359;53.596;22.520;2023-07-13T20:24:20;3.73;;;1.97;;
20399;SDS011;10359;53.596;22.520;2023-07-13T20:31:14;3.10;;;2.10;;
20399;SDS011;10359;53.596;22.520;2023-07-13T20:38:08;5.80;;;5.30;;
20399;SDS011;10359;53.596;22.520;2023-07-13T20:45:02;6.73;;;6.13;;
20399;SDS011;10359;53.596;22.520;2023-07-13T20:51:56;7.17;;;6.47;;
20399;SDS011;10359;53.596;22.520;2023-07-13T20:58:30;6.57;;;5.40;;
20399;SDS011;10359;53.596;22.520;2023-07-13T21:05:11;8.57;;;5.00;;
20399;SDS011;10359;53.596;22.520;2023-07-13T21:12:06;4.83;;;4.33;;
20399;SDS011;10359;53.596;22.520;2023-07-13T21:18:57;4.53;;;4.20;;
20399;SDS011;10359;53.596;22.520;2023-07-13T21:25:48;4.87;;;4.47;;
20399;SDS011;10359;53.596;22.520;2023-07-13T21:32:40;6.00;;;5.50;;
20399;SDS011;10359;53.596;22.520;2023-07-13T21:39:32;7.50;;;5.73;;
20399;SDS011;10359;53.596;22.520;2023-07-13T21:46:28;6.50;;;5.93;;
20399;SDS011;10359;53.596;22.520;2023-07-13T21:53:22;7.40;;;6.37;;
20399;SDS011;10359;53.596;22.520;2023-07-13T22:00:17;9.03;;;7.03;;
20399;SDS011;10359;53.596;22.520;2023-07-13T22:07:10;7.33;;;6.47;;
20399;SDS011;10359;53.596;22.520;2023-07-13T22:14:03;7.80;;;6.13;;
20399;SDS011;10359;53.596;22.520;2023-07-13T22:20:54;6.20;;;5.53;;
20399;SDS011;10359;53.596;22.520;2023-07-13T22:27:45;6.47;;;5.60;;
20399;SDS011;10359;53.596;22.520;2023-07-13T22:34:37;6.87;;;5.63;;
20399;SDS011;10359;53.596;22.520;2023-07-13T22:41:28;7.83;;;5.80;;
20399;SDS011;10359;53.596;22.520;2023-07-13T22:48:19;6.73;;;5.00;;
20399;SDS011;10359;53.596;22.520;2023-07-13T22:54:55;7.60;;;4.33;;
20399;SDS011;10359;53.596;22.520;2023-07-13T23:01:46;7.93;;;4.70;;
20399;SDS011;10359;53.596;22.520;2023-07-13T23:08:37;7.90;;;3.90;;
20399;SDS011;10359;53.596;22.520;2023-07-13T23:15:12;6.03;;;4.10;;
20399;SDS011;10359;53.596;22.520;2023-07-13T23:22:10;5.10;;;4.60;;
20399;SDS011;10359;53.596;22.520;2023-07-13T23:29:14;6.73;;;4.10;;
20399;SDS011;10359;53.596;22.520;2023-07-13T23:35:49;5.37;;;3.90;;
20399;SDS011;10359;53.596;22.520;2023-07-13T23:42:28;6.00;;;3.93;;
20399;SDS011;10359;53.596;22.520;2023-07-13T23:49:20;4.40;;;3.40;;
20399;SDS011;10359;53.596;22.520;2023-07-13T23:55:56;4.30;;;3.90;;
